Time,TemperatureF,DewpointF,PressureIn,WindDirection,WindDirectionDegrees,WindSpeedMPH,WindSpeedGustMPH,Humidity,HourlyPrecipIn,Conditions,Clouds,dailyrainin,SoftwareType,DateUTC
2013-06-16 00:01:00,50.0,33.0,-100.00,SW,225,10.0,19.0,51,0.00,,,-99.99,,2013-06-16 06:01:00,
2013-06-16 00:11:00,49.0,33.0,-100.00,SW,220,10.0,14.0,52,0.00,,,-99.99,,2013-06-16 06:11:00,
2013-06-16 00:22:00,49.0,33.0,-100.00,SW,225,7.0,16.0,52,0.00,,,-99.99,,2013-06-16 06:22:00,
2013-06-16 00:33:00,49.0,33.0,-100.00,SW,230,9.0,12.0,53,0.00,,,-99.99,,2013-06-16 06:33:00,
2013-06-16 00:43:00,48.0,33.0,-100.00,SW,230,8.0,13.0,54,0.00,,,-99.99,,2013-06-16 06:43:00,
2013-06-16 00:52:00,48.0,33.0,-100.00,SW,225,6.0,10.0,54,0.00,,,-99.99,,2013-06-16 06:52:00,
2013-06-16 01:01:00,48.0,33.0,-100.00,SW,220,6.0,9.0,55,0.00,,,-99.99,,2013-06-16 07:01:00,
2013-06-16 01:11:00,48.0,33.0,-100.00,SW,235,7.0,11.0,55,0.00,,,-99.99,,2013-06-16 07:11:00,
2013-06-16 01:22:00,47.0,33.0,-100.00,SW,230,6.0,10.0,56,0.00,,,-99.99,,2013-06-16 07:22:00,
2013-06-16 01:32:00,47.0,33.0,-100.00,WSW,245,6.0,9.0,57,0.00,,,-99.99,,2013-06-16 07:32:00,
2013-06-16 01:43:00,47.0,33.0,-100.00,SW,235,5.0,7.0,58,0.00,,,-99.99,,2013-06-16 07:43:00,
2013-06-16 01:53:00,47.0,33.0,-100.00,WSW,240,6.0,11.0,58,0.00,,,-99.99,,2013-06-16 07:53:00,
2013-06-16 02:02:00,46.0,33.0,-100.00,WSW,245,4.0,9.0,58,0.00,,,-99.99,,2013-06-16 08:02:00,
2013-06-16 02:11:00,46.0,33.0,-100.00,WSW,245,6.0,9.0,59,0.00,,,-99.99,,2013-06-16 08:11:00,
2013-06-16 02:22:00,46.0,33.0,-100.00,WSW,255,6.0,9.0,59,0.00,,,-99.99,,2013-06-16 08:22:00,
2013-06-16 02:33:00,46.0,33.0,-100.00,WSW,240,6.0,9.0,60,0.00,,,-99.99,,2013-06-16 08:33:00,
2013-06-16 02:43:00,46.0,33.0,-100.00,WSW,245,6.0,10.0,61,0.00,,,-99.99,,2013-06-16 08:43:00,
2013-06-16 02:54:00,46.0,33.0,-100.00,West,260,4.0,8.0,61,0.00,,,-99.99,,2013-06-16 08:54:00,
2013-06-16 03:01:00,46.0,33.0,-100.00,WSW,250,4.0,7.0,61,0.00,,,-99.99,,2013-06-16 09:01:00,
2013-06-16 03:11:00,46.0,33.0,-100.00,WSW,240,2.0,7.0,61,0.00,,,-99.99,,2013-06-16 09:11:00,
2013-06-16 03:22:00,45.0,33.0,-100.00,SW,235,2.0,6.0,62,0.00,,,-99.99,,2013-06-16 09:22:00,
2013-06-16 03:33:00,44.0,33.0,-100.00,WSW,250,4.0,6.0,63,0.00,,,-99.99,,2013-06-16 09:33:00,
2013-06-16 03:43:00,45.0,33.0,-100.00,WSW,255,4.0,7.0,63,0.00,,,-99.99,,2013-06-16 09:43:00,
2013-06-16 03:52:00,44.0,33.0,-100.00,WSW,240,3.0,7.0,64,0.00,,,-99.99,,2013-06-16 09:52:00,
2013-06-16 04:01:00,44.0,33.0,-100.00,SW,230,3.0,6.0,65,0.00,,,-99.99,,2013-06-16 10:01:00,
2013-06-16 04:12:00,44.0,33.0,-100.00,WSW,240,3.0,7.0,65,0.00,,,-99.99,,2013-06-16 10:12:00,
2013-06-16 04:22:00,43.0,33.0,-100.00,SW,220,3.0,6.0,68,0.00,,,-99.99,,2013-06-16 10:22:00,
2013-06-16 04:33:00,43.0,33.0,-100.00,WSW,240,5.0,7.0,68,0.00,,,-99.99,,2013-06-16 10:33:00,
2013-06-16 04:43:00,43.0,33.0,-100.00,SW,220,4.0,9.0,68,0.00,,,-99.99,,2013-06-16 10:43:00,
2013-06-16 04:54:00,42.0,33.0,-100.00,SW,225,4.0,9.0,69,0.00,,,-99.99,,2013-06-16 10:54:00,
2013-06-16 05:02:00,42.0,33.0,-100.00,SW,225,4.0,7.0,70,0.00,,,-99.99,,2013-06-16 11:02:00,
2013-06-16 05:11:00,42.0,33.0,-100.00,SW,215,4.0,6.0,71,0.00,,,-99.99,,2013-06-16 11:11:00,
2013-06-16 05:22:00,41.0,33.0,-100.00,WSW,240,3.0,7.0,73,0.00,,,-99.99,,2013-06-16 11:22:00,
2013-06-16 05:33:00,42.0,34.0,-100.00,WSW,250,3.0,6.0,73,0.00,,,-99.99,,2013-06-16 11:33:00,
2013-06-16 05:43:00,42.0,34.0,-100.00,West,260,2.0,5.0,73,0.00,,,-99.99,,2013-06-16 11:43:00,
2013-06-16 05:53:00,40.0,33.0,-100.00,South,175,0.0,3.0,74,0.00,,,-99.99,,2013-06-16 11:53:00,
2013-06-16 06:02:00,40.0,33.0,-100.00,WSW,245,2.0,5.0,76,0.00,,,-99.99,,2013-06-16 12:02:00,
2013-06-16 06:11:00,42.0,34.0,-100.00,WSW,245,4.0,7.0,75,0.00,,,-99.99,,2013-06-16 12:11:00,
2013-06-16 06:22:00,43.0,35.0,-100.00,SW,235,5.0,6.0,73,0.00,,,-99.99,,2013-06-16 12:22:00,
2013-06-16 06:32:00,44.0,35.0,-100.00,WSW,250,4.0,6.0,72,0.00,,,-99.99,,2013-06-16 12:32:00,
2013-06-16 06:42:00,44.0,36.0,-100.00,SW,235,2.0,7.0,71,0.00,,,-99.99,,2013-06-16 12:42:00,
2013-06-16 06:53:00,46.0,36.0,-100.00,SW,235,2.0,4.0,69,0.00,,,-99.99,,2013-06-16 12:53:00,
2013-06-16 07:01:00,46.0,36.0,-100.00,WSW,245,2.0,4.0,68,0.00,,,-99.99,,2013-06-16 13:01:00,
2013-06-16 07:11:00,47.0,37.0,-100.00,WSW,240,2.0,6.0,66,0.00,,,-99.99,,2013-06-16 13:11:00,
2013-06-16 07:22:00,48.0,37.0,-100.00,WSW,250,4.0,7.0,64,0.00,,,-99.99,,2013-06-16 13:22:00,
2013-06-16 07:34:00,49.0,37.0,-100.00,SW,235,3.0,7.0,63,0.00,,,-99.99,,2013-06-16 13:34:00,
2013-06-16 07:42:00,49.0,37.0,-100.00,WSW,255,3.0,7.0,62,0.00,,,-99.99,,2013-06-16 13:42:00,
2013-06-16 07:53:00,51.0,37.0,-100.00,West,270,3.0,6.0,59,0.00,,,-99.99,,2013-06-16 13:53:00,
2013-06-16 08:02:00,52.0,37.0,-100.00,SW,235,3.0,6.0,56,0.00,,,-99.99,,2013-06-16 14:02:00,
2013-06-16 08:12:00,54.0,38.0,-100.00,SW,235,3.0,9.0,54,0.00,,,-99.99,,2013-06-16 14:12:00,
2013-06-16 08:22:00,54.0,38.0,-100.00,SW,235,3.0,9.0,54,0.00,,,-99.99,,2013-06-16 14:22:00,
2013-06-16 08:34:00,57.0,38.0,-100.00,South,185,2.0,6.0,49,0.00,,,-99.99,,2013-06-16 14:34:00,
2013-06-16 08:43:00,57.0,38.0,-100.00,South,170,3.0,9.0,48,0.00,,,-99.99,,2013-06-16 14:43:00,
2013-06-16 08:52:00,58.0,38.0,-100.00,South,175,6.0,11.0,48,0.00,,,-99.99,,2013-06-16 14:52:00,
2013-06-16 09:02:00,58.0,38.0,-100.00,SSE,155,6.0,11.0,47,0.00,,,-99.99,,2013-06-16 15:02:00,
2013-06-16 09:12:00,58.0,38.0,-100.00,SSE,150,5.0,12.0,47,0.00,,,-99.99,,2013-06-16 15:12:00,
2013-06-16 09:23:00,60.0,40.0,-100.00,SSE,155,5.0,11.0,46,0.00,,,-99.99,,2013-06-16 15:23:00,
2013-06-16 09:33:00,58.0,38.0,-100.00,SW,220,7.0,13.0,46,0.00,,,-99.99,,2013-06-16 15:33:00,
2013-06-16 09:43:00,59.0,38.0,-100.00,SW,225,7.0,12.0,45,0.00,,,-99.99,,2013-06-16 15:43:00,
2013-06-16 09:53:00,61.0,40.0,-100.00,SE,130,4.0,12.0,46,0.00,,,-99.99,,2013-06-16 15:53:00,
2013-06-16 10:02:00,61.0,39.0,-100.00,SSE,160,5.0,9.0,44,0.00,,,-99.99,,2013-06-16 16:02:00,
2013-06-16 10:12:00,61.0,39.0,-100.00,SSW,195,4.0,9.0,43,0.00,,,-99.99,,2013-06-16 16:12:00,
2013-06-16 10:22:00,62.0,40.0,-100.00,East,100,3.0,11.0,44,0.00,,,-99.99,,2013-06-16 16:22:00,
2013-06-16 10:33:00,61.0,39.0,-100.00,South,175,7.0,14.0,44,0.00,,,-99.99,,2013-06-16 16:33:00,
2013-06-16 10:43:00,62.0,40.0,-100.00,SW,225,2.0,17.0,44,0.00,,,-99.99,,2013-06-16 16:43:00,
2013-06-16 10:53:00,62.0,39.0,-100.00,SW,215,11.0,20.0,43,0.00,,,-99.99,,2013-06-16 16:53:00,
2013-06-16 11:02:00,62.0,39.0,-100.00,South,175,6.0,20.0,43,0.00,,,-99.99,,2013-06-16 17:02:00,
2013-06-16 11:12:00,62.0,39.0,-100.00,SW,220,12.0,16.0,43,0.00,,,-99.99,,2013-06-16 17:12:00,
2013-06-16 11:22:00,65.0,42.0,-100.00,East,90,4.0,16.0,42,0.00,,,-99.99,,2013-06-16 17:22:00,
2013-06-16 11:34:00,62.0,39.0,-100.00,SW,235,4.0,17.0,43,0.00,,,-99.99,,2013-06-16 17:34:00,
2013-06-16 11:43:00,63.0,40.0,-100.00,SSW,210,6.0,12.0,42,0.00,,,-99.99,,2013-06-16 17:43:00,
2013-06-16 11:53:00,63.0,39.0,-100.00,South,175,4.0,20.0,41,0.00,,,-99.99,,2013-06-16 17:53:00,
2013-06-16 12:02:00,64.0,40.0,-100.00,SSW,200,9.0,16.0,41,0.00,,,-99.99,,2013-06-16 18:02:00,
2013-06-16 12:12:00,63.0,40.0,-100.00,SW,225,10.0,22.0,41,0.00,,,-99.99,,2013-06-16 18:12:00,
2013-06-16 12:22:00,63.0,40.0,-100.00,SW,225,10.0,22.0,41,0.00,,,-99.99,,2013-06-16 18:22:00,
2013-06-16 12:33:00,63.0,38.0,-100.00,SSW,200,7.0,16.0,40,0.00,,,-99.99,,2013-06-16 18:33:00,
2013-06-16 12:43:00,62.0,39.0,-100.00,SW,220,7.0,16.0,41,0.00,,,-99.99,,2013-06-16 18:43:00,
2013-06-16 12:52:00,63.0,39.0,-100.00,SSW,205,6.0,18.0,41,0.00,,,-99.99,,2013-06-16 18:52:00,
2013-06-16 13:01:00,64.0,39.0,-100.00,South,180,4.0,13.0,40,0.00,,,-99.99,,2013-06-16 19:01:00,
2013-06-16 13:11:00,63.0,38.0,-100.00,SW,215,12.0,23.0,39,0.00,,,-99.99,,2013-06-16 19:11:00,
2013-06-16 13:22:00,64.0,38.0,-100.00,SE,130,9.0,22.0,38,0.00,,,-99.99,,2013-06-16 19:22:00,
2013-06-16 13:34:00,63.0,37.0,-100.00,SW,220,12.0,24.0,37,0.00,,,-99.99,,2013-06-16 19:34:00,
2013-06-16 13:43:00,63.0,37.0,-100.00,SW,230,12.0,24.0,38,0.00,,,-99.99,,2013-06-16 19:43:00,
2013-06-16 13:53:00,63.0,37.0,-100.00,SW,230,7.0,25.0,38,0.00,,,-99.99,,2013-06-16 19:53:00,
2013-06-16 14:02:00,62.0,36.0,-100.00,SW,215,13.0,20.0,37,0.00,,,-99.99,,2013-06-16 20:02:00,
2013-06-16 14:11:00,63.0,37.0,-100.00,SSW,210,4.0,22.0,38,0.00,,,-99.99,,2013-06-16 20:11:00,
2013-06-16 14:22:00,65.0,38.0,-100.00,SW,215,6.0,17.0,37,0.00,,,-99.99,,2013-06-16 20:22:00,
2013-06-16 14:33:00,64.0,38.0,-100.00,SW,215,6.0,16.0,37,0.00,,,-99.99,,2013-06-16 20:33:00,
2013-06-16 14:42:00,63.0,36.0,-100.00,SSE,155,6.0,17.0,36,0.00,,,-99.99,,2013-06-16 20:42:00,
2013-06-16 14:53:00,65.0,38.0,-100.00,SE,140,7.0,17.0,36,0.00,,,-99.99,,2013-06-16 20:53:00,
2013-06-16 15:01:00,63.0,36.0,-100.00,South,170,9.0,20.0,36,0.00,,,-99.99,,2013-06-16 21:01:00,
2013-06-16 15:11:00,62.0,35.0,-100.00,SW,225,4.0,20.0,36,0.00,,,-99.99,,2013-06-16 21:11:00,
2013-06-16 15:22:00,60.0,35.0,-100.00,SW,220,10.0,29.0,38,0.00,,,-99.99,,2013-06-16 21:22:00,
2013-06-16 15:32:00,63.0,37.0,-100.00,SSW,200,9.0,21.0,38,0.00,,,-99.99,,2013-06-16 21:32:00,
2013-06-16 15:42:00,62.0,36.0,-100.00,SSW,205,9.0,19.0,38,0.00,,,-99.99,,2013-06-16 21:42:00,
2013-06-16 15:53:00,63.0,37.0,-100.00,SW,215,6.0,16.0,38,0.00,,,-99.99,,2013-06-16 21:53:00,
2013-06-16 16:01:00,62.0,36.0,-100.00,SSW,210,9.0,16.0,38,0.00,,,-99.99,,2013-06-16 22:01:00,
2013-06-16 16:12:00,63.0,37.0,-100.00,SW,215,9.0,14.0,38,0.00,,,-99.99,,2013-06-16 22:12:00,
2013-06-16 16:22:00,63.0,36.0,-100.00,SSE,150,6.0,29.0,36,0.00,,,-99.99,,2013-06-16 22:22:00,
2013-06-16 16:32:00,63.0,36.0,-100.00,SW,220,12.0,21.0,36,0.00,,,-99.99,,2013-06-16 22:32:00,
2013-06-16 16:42:00,63.0,36.0,-100.00,SSW,205,13.0,19.0,35,0.00,,,-99.99,,2013-06-16 22:42:00,
2013-06-16 16:52:00,63.0,35.0,-100.00,SSW,210,10.0,24.0,34,0.00,,,-99.99,,2013-06-16 22:52:00,
2013-06-16 17:01:00,62.0,34.0,-100.00,SSE,155,6.0,16.0,34,0.00,,,-99.99,,2013-06-16 23:01:00,
2013-06-16 17:11:00,64.0,35.0,-100.00,SSW,200,7.0,19.0,34,0.00,,,-99.99,,2013-06-16 23:11:00,
2013-06-16 17:22:00,63.0,35.0,-100.00,SW,235,7.0,17.0,34,0.00,,,-99.99,,2013-06-16 23:22:00,
2013-06-16 17:32:00,64.0,35.0,-100.00,SSW,210,5.0,17.0,34,0.00,,,-99.99,,2013-06-16 23:32:00,
2013-06-16 17:42:00,64.0,35.0,-100.00,SSW,205,9.0,17.0,33,0.00,,,-99.99,,2013-06-16 23:42:00,
2013-06-16 17:51:00,62.0,33.0,-100.00,SW,235,10.0,24.0,33,0.00,,,-99.99,,2013-06-16 23:51:00,
2013-06-16 18:02:00,63.0,34.0,-100.00,SW,230,3.0,15.0,33,0.00,,,-99.99,,2013-06-17 00:02:00,
2013-06-16 18:11:00,65.0,35.0,-100.00,SW,220,6.0,12.0,33,0.00,,,-99.99,,2013-06-17 00:11:00,
2013-06-16 18:22:00,64.0,34.0,-100.00,South,185,9.0,19.0,32,0.00,,,-99.99,,2013-06-17 00:22:00,
2013-06-16 18:32:00,63.0,33.0,-100.00,South,180,11.0,22.0,32,0.00,,,-99.99,,2013-06-17 00:32:00,
2013-06-16 18:43:00,62.0,32.0,-100.00,SW,220,16.0,22.0,32,0.00,,,-99.99,,2013-06-17 00:43:00,
2013-06-16 18:52:00,62.0,33.0,-100.00,SW,225,9.0,21.0,32,0.00,,,-99.99,,2013-06-17 00:52:00,
2013-06-16 19:02:00,61.0,32.0,-100.00,SSW,210,9.0,17.0,33,0.00,,,-99.99,,2013-06-17 01:02:00,
2013-06-16 19:11:00,61.0,32.0,-100.00,SW,230,14.0,22.0,33,0.00,,,-99.99,,2013-06-17 01:11:00,
2013-06-16 19:22:00,60.0,32.0,-100.00,SW,215,6.0,16.0,34,0.00,,,-99.99,,2013-06-17 01:22:00,
2013-06-16 19:32:00,60.0,31.0,-100.00,SW,215,6.0,21.0,34,0.00,,,-99.99,,2013-06-17 01:32:00,
2013-06-16 19:43:00,59.0,31.0,-100.00,SW,220,6.0,12.0,34,0.00,,,-99.99,,2013-06-17 01:43:00,
2013-06-16 19:53:00,59.0,31.0,-100.00,SW,220,10.0,17.0,34,0.00,,,-99.99,,2013-06-17 01:53:00,
2013-06-16 20:02:00,59.0,31.0,-100.00,SW,225,14.0,25.0,34,0.00,,,-99.99,,2013-06-17 02:02:00,
2013-06-16 20:12:00,58.0,31.0,-100.00,West,260,3.0,29.0,36,0.00,,,-99.99,,2013-06-17 02:12:00,
2013-06-16 20:22:00,57.0,31.0,-100.00,WSW,240,7.0,12.0,36,0.00,,,-99.99,,2013-06-17 02:22:00,
2013-06-16 20:34:00,57.0,31.0,-100.00,SW,225,6.0,12.0,36,0.00,,,-99.99,,2013-06-17 02:34:00,
2013-06-16 20:43:00,57.0,31.0,-100.00,SW,220,6.0,14.0,36,0.00,,,-99.99,,2013-06-17 02:43:00,
2013-06-16 20:53:00,56.0,30.0,-100.00,SW,235,6.0,9.0,37,0.00,,,-99.99,,2013-06-17 02:53:00,
2013-06-16 21:02:00,55.0,30.0,-100.00,SW,220,6.0,10.0,38,0.00,,,-99.99,,2013-06-17 03:02:00,
2013-06-16 21:12:00,55.0,30.0,-100.00,WSW,255,4.0,8.0,38,0.00,,,-99.99,,2013-06-17 03:12:00,
2013-06-16 21:22:00,54.0,30.0,-100.00,SW,225,4.0,7.0,39,0.00,,,-99.99,,2013-06-17 03:22:00,
2013-06-16 21:33:00,55.0,31.0,-100.00,WSW,240,9.0,14.0,39,0.00,,,-99.99,,2013-06-17 03:33:00,
2013-06-16 21:44:00,55.0,31.0,-100.00,SSW,210,6.0,14.0,40,0.00,,,-99.99,,2013-06-17 03:44:00,
2013-06-16 21:54:00,55.0,31.0,-100.00,WSW,240,6.0,9.0,41,0.00,,,-99.99,,2013-06-17 03:54:00,
2013-06-16 22:02:00,54.0,31.0,-100.00,SW,230,7.0,9.0,42,0.00,,,-99.99,,2013-06-17 04:02:00,
2013-06-16 22:12:00,54.0,31.0,-100.00,SW,235,7.0,9.0,42,0.00,,,-99.99,,2013-06-17 04:12:00,
2013-06-16 22:22:00,53.0,31.0,-100.00,SW,230,6.0,10.0,43,0.00,,,-99.99,,2013-06-17 04:22:00,
2013-06-16 22:34:00,53.0,31.0,-100.00,SW,225,9.0,12.0,43,0.00,,,-99.99,,2013-06-17 04:34:00,
2013-06-16 22:42:00,53.0,32.0,-100.00,SW,220,9.0,12.0,44,0.00,,,-99.99,,2013-06-17 04:42:00,
2013-06-16 22:53:00,53.0,32.0,-100.00,SW,225,5.0,9.0,44,0.00,,,-99.99,,2013-06-17 04:53:00,
2013-06-16 23:02:00,53.0,32.0,-100.00,WSW,245,6.0,8.0,45,0.00,,,-99.99,,2013-06-17 05:02:00,
2013-06-16 23:12:00,52.0,32.0,-100.00,WSW,245,6.0,8.0,45,0.00,,,-99.99,,2013-06-17 05:12:00,
2013-06-16 23:22:00,52.0,32.0,-100.00,WSW,245,6.0,8.0,45,0.00,,,-99.99,,2013-06-17 05:22:00,
2013-06-16 23:33:00,50.0,31.0,-100.00,West,270,4.0,7.0,48,0.00,,,-99.99,,2013-06-17 05:33:00,
2013-06-16 23:44:00,50.0,31.0,-100.00,WSW,250,4.0,6.0,48,0.00,,,-99.99,,2013-06-17 05:44:00,
2013-06-16 23:53:00,50.0,31.0,-100.00,WSW,245,2.0,6.0,48,0.00,,,-99.99,,2013-06-17 05:53:00,